createdAt,value
2019-02-28T00:00:37.236Z,9.70
2019-02-28T00:03:06.188Z,9.70
2019-02-28T00:05:37.945Z,9.80
2019-02-28T00:08:11.438Z,9.90
2019-02-28T00:10:40.126Z,9.90
2019-02-28T00:13:14.951Z,9.90
2019-02-28T00:15:43.843Z,9.90
2019-02-28T00:18:15.287Z,9.90
2019-02-28T00:20:49.822Z,9.80
2019-02-28T00:23:25.060Z,9.80
2019-02-28T00:26:11.376Z,9.80
2019-02-28T00:28:36.776Z,9.80
2019-02-28T00:31:05.659Z,9.70
2019-02-28T00:33:41.921Z,9.70
2019-02-28T00:36:10.460Z,9.70
2019-02-28T00:38:46.674Z,9.70
2019-02-28T00:41:15.355Z,9.70
2019-02-28T00:43:43.944Z,9.70
2019-02-28T00:46:19.184Z,9.60
2019-02-28T00:48:48.074Z,9.60
2019-02-28T00:51:23.124Z,9.60
2019-02-28T00:53:51.896Z,9.50
2019-02-28T00:56:20.582Z,9.50
2019-02-28T00:58:56.074Z,9.50
2019-02-28T01:01:24.919Z,9.50
2019-02-28T01:04:00.979Z,9.40
2019-02-28T01:06:44.209Z,9.40
2019-02-28T01:09:27.150Z,9.40
2019-02-28T01:11:56.739Z,9.40
2019-02-28T01:14:25.634Z,9.30
2019-02-28T01:17:01.599Z,9.30
2019-02-28T01:19:30.373Z,9.30
2019-02-28T01:22:06.023Z,9.20
2019-02-28T01:24:41.273Z,9.20
2019-02-28T01:27:23.363Z,9.20
2019-02-28T01:29:52.255Z,9.30
2019-02-28T01:32:21.158Z,9.30
2019-02-28T01:34:56.394Z,9.30
2019-02-28T01:37:25.180Z,9.30
2019-02-28T01:40:04.392Z,9.30
2019-02-28T01:42:31.359Z,9.30
2019-02-28T01:45:00.046Z,9.40
2019-02-28T01:47:36.207Z,9.40
2019-02-28T01:50:06.736Z,9.40
2019-02-28T01:52:45.969Z,9.40
2019-02-28T01:55:12.802Z,9.40
2019-02-28T01:57:44.051Z,9.40
2019-02-28T02:00:23.801Z,9.40
2019-02-28T02:02:51.677Z,9.50
2019-02-28T02:05:20.464Z,9.50
2019-02-28T02:07:56.521Z,9.50
2019-02-28T02:10:25.206Z,9.50
2019-02-28T02:13:03.127Z,9.50
2019-02-28T02:15:31.901Z,9.50
2019-02-28T02:18:09.339Z,9.40
2019-02-28T02:20:37.679Z,9.40
2019-02-28T02:23:19.873Z,9.40
2019-02-28T02:25:55.062Z,9.40
2019-02-28T02:28:37.115Z,9.40
2019-02-28T02:31:05.800Z,9.40
2019-02-28T02:33:34.691Z,9.40
2019-02-28T02:36:10.136Z,9.40
2019-02-28T02:38:41.481Z,9.30
2019-02-28T02:41:16.522Z,9.30
2019-02-28T02:43:45.319Z,9.30
2019-02-28T02:46:19.639Z,9.30
2019-02-28T02:48:51.081Z,9.40
2019-02-28T02:51:19.972Z,9.30
2019-02-28T02:53:55.824Z,9.30
2019-02-28T02:56:24.648Z,9.30
2019-02-28T02:58:53.608Z,9.30
2019-02-28T03:01:29.890Z,9.20
2019-02-28T03:03:58.764Z,9.20
2019-02-28T03:06:34.626Z,9.20
2019-02-28T03:09:09.694Z,9.20
2019-02-28T03:11:35.470Z,9.20
2019-02-28T03:14:16.173Z,9.20
2019-02-28T03:16:41.964Z,9.20
2019-02-28T03:19:17.818Z,9.20
2019-02-28T03:21:51.453Z,9.20
2019-02-28T03:24:30.142Z,9.10
2019-02-28T03:27:04.786Z,9.10
2019-02-28T03:29:47.194Z,9.00
2019-02-28T03:32:15.872Z,9.00
2019-02-28T03:34:55.010Z,8.90
2019-02-28T03:37:22.041Z,8.90
2019-02-28T03:39:50.936Z,8.80
2019-02-28T03:42:28.881Z,8.80
2019-02-28T03:44:58.186Z,8.70
2019-02-28T03:47:27.025Z,8.70
2019-02-28T03:50:02.985Z,8.60
2019-02-28T03:52:31.670Z,8.60
2019-02-28T03:55:07.117Z,8.50
2019-02-28T03:57:36.008Z,8.50
2019-02-28T04:00:10.737Z,8.50
2019-02-28T04:02:46.694Z,8.40
2019-02-28T04:05:15.280Z,8.40
2019-02-28T04:07:53.642Z,8.50
2019-02-28T04:10:22.566Z,8.40
2019-02-28T04:12:54.443Z,8.30
2019-02-28T04:15:29.992Z,8.30
2019-02-28T04:17:58.679Z,8.20
2019-02-28T04:20:37.315Z,8.20
2019-02-28T04:23:04.961Z,8.20
2019-02-28T04:25:47.271Z,8.20
2019-02-28T04:28:22.311Z,8.20
2019-02-28T04:31:04.098Z,8.20
2019-02-28T04:33:37.366Z,8.20
2019-02-28T04:36:03.212Z,8.30
2019-02-28T04:38:38.667Z,8.30
2019-02-28T04:41:07.547Z,8.30
2019-02-28T04:43:44.414Z,8.30
2019-02-28T04:46:12.909Z,8.30
2019-02-28T04:48:41.549Z,8.30
2019-02-28T04:51:16.440Z,8.30
2019-02-28T04:53:45.110Z,8.20
2019-02-28T04:56:20.149Z,8.20
2019-02-28T04:58:48.689Z,8.20
2019-02-28T05:01:17.409Z,8.20
2019-02-28T05:03:52.777Z,8.10
2019-02-28T05:06:21.902Z,8.10
2019-02-28T05:08:57.425Z,8.10
2019-02-28T05:11:27.355Z,8.10
2019-02-28T05:13:56.620Z,8.00
2019-02-28T05:16:31.975Z,8.00
2019-02-28T05:19:01.674Z,8.00
2019-02-28T05:21:38.050Z,8.00
2019-02-28T05:24:07.743Z,8.00
2019-02-28T05:26:52.412Z,8.00
2019-02-28T05:29:27.856Z,8.00
2019-02-28T05:32:09.675Z,8.00
2019-02-28T05:34:38.342Z,8.00
2019-02-28T05:37:11.896Z,8.10
2019-02-28T05:39:44.113Z,8.00
2019-02-28T05:42:12.897Z,8.10
2019-02-28T05:44:48.363Z,8.10
2019-02-28T05:47:17.241Z,8.10
2019-02-28T05:49:45.826Z,8.10
2019-02-28T05:52:20.973Z,8.10
2019-02-28T05:54:50.328Z,8.20
2019-02-28T05:57:27.441Z,8.20
2019-02-28T06:00:01.470Z,8.20
2019-02-28T06:02:26.243Z,8.20
2019-02-28T06:05:01.608Z,8.20
2019-02-28T06:07:30.483Z,8.20
2019-02-28T06:10:05.838Z,8.20
2019-02-28T06:12:34.408Z,8.30
2019-02-28T06:15:03.759Z,8.20
2019-02-28T06:17:39.769Z,8.20
2019-02-28T06:20:10.091Z,8.30
2019-02-28T06:22:45.137Z,8.30
2019-02-28T06:25:24.023Z,8.30
2019-02-28T06:28:04.685Z,8.30
2019-02-28T06:30:33.619Z,8.30
2019-02-28T06:33:02.277Z,8.40
2019-02-28T06:35:38.059Z,8.40
2019-02-28T06:38:06.843Z,8.40
2019-02-28T06:40:42.597Z,8.40
2019-02-28T06:43:11.295Z,8.50
2019-02-28T06:45:40.148Z,8.50
2019-02-28T06:48:15.121Z,8.50
2019-02-28T06:50:44.670Z,8.60
2019-02-28T06:53:21.321Z,8.60
2019-02-28T06:55:49.976Z,8.60
2019-02-28T06:58:18.560Z,8.70
2019-02-28T07:00:54.005Z,8.70
2019-02-28T07:03:22.875Z,8.80
2019-02-28T07:06:01.029Z,8.70
2019-02-28T07:08:29.083Z,8.80
2019-02-28T07:10:57.969Z,8.80
2019-02-28T07:13:39.024Z,8.80
2019-02-28T07:16:04.411Z,8.80
2019-02-28T07:18:40.524Z,8.90
2019-02-28T07:21:09.170Z,9.00
2019-02-28T07:23:37.672Z,9.10
2019-02-28T07:26:12.837Z,9.20
2019-02-28T07:28:48.379Z,9.30
2019-02-28T07:31:29.857Z,9.40
2019-02-28T07:33:58.539Z,9.40
2019-02-28T07:36:27.157Z,9.60
2019-02-28T07:39:04.469Z,9.70
2019-02-28T07:41:32.592Z,9.80
2019-02-28T07:44:08.658Z,10.00
2019-02-28T07:46:38.799Z,10.00
2019-02-28T07:49:07.354Z,10.10
2019-02-28T07:51:42.904Z,10.10
2019-02-28T07:54:12.666Z,10.30
2019-02-28T07:56:48.506Z,10.50
2019-02-28T07:59:17.356Z,10.70
2019-02-28T08:01:53.079Z,10.80
2019-02-28T08:04:21.919Z,11.00
2019-02-28T08:06:50.454Z,11.00
2019-02-28T08:09:31.878Z,11.20
2019-02-28T08:12:00.565Z,11.40
2019-02-28T08:14:35.830Z,11.60
2019-02-28T08:17:05.403Z,11.90
2019-02-28T08:19:34.724Z,12.30
2019-02-28T08:22:10.783Z,13.40
2019-02-28T08:24:39.296Z,15.10
2019-02-28T08:27:14.702Z,16.70
2019-02-28T08:29:50.224Z,18.40
2019-02-28T08:32:33.768Z,19.80
2019-02-28T08:35:02.121Z,20.60
2019-02-28T08:37:30.942Z,21.60
2019-02-28T08:40:05.685Z,22.10
2019-02-28T08:42:38.705Z,23.50
2019-02-28T08:45:14.203Z,24.00
2019-02-28T08:47:42.823Z,24.30
2019-02-28T08:50:19.067Z,23.80
2019-02-28T08:52:50.821Z,23.70
2019-02-28T08:55:28.367Z,24.00
2019-02-28T08:58:01.321Z,24.50
2019-02-28T09:00:31.292Z,24.70
2019-02-28T09:03:03.800Z,24.70
2019-02-28T09:05:32.372Z,25.90
2019-02-28T09:08:01.158Z,26.80
2019-02-28T09:10:37.527Z,26.50
2019-02-28T09:13:08.694Z,25.50
2019-02-28T09:15:43.414Z,26.00
2019-02-28T09:18:12.095Z,26.30
2019-02-28T09:20:41.414Z,26.70
2019-02-28T09:23:18.410Z,26.80
2019-02-28T09:25:47.032Z,27.90
2019-02-28T09:28:28.849Z,27.70
2019-02-28T09:31:05.059Z,28.80
2019-02-28T09:33:42.112Z,29.20
2019-02-28T09:36:10.795Z,28.10
2019-02-28T09:38:42.208Z,28.50
2019-02-28T09:41:16.357Z,27.80
2019-02-28T09:43:45.030Z,27.00
2019-02-28T09:46:20.886Z,27.00
2019-02-28T09:48:49.483Z,27.20
2019-02-28T09:51:18.471Z,27.00
2019-02-28T09:53:53.604Z,27.80
2019-02-28T09:56:22.293Z,27.40
2019-02-28T09:59:00.232Z,28.10
2019-02-28T10:01:27.868Z,28.10
2019-02-28T10:03:56.594Z,28.70
2019-02-28T10:06:33.158Z,29.30
2019-02-28T10:09:01.728Z,30.00
2019-02-28T10:11:37.310Z,30.80
2019-02-28T10:14:05.931Z,31.00
2019-02-28T10:16:41.803Z,31.70
2019-02-28T10:19:13.436Z,31.70
2019-02-28T10:21:40.650Z,31.00
2019-02-28T10:24:15.810Z,30.10
2019-02-28T10:26:44.349Z,30.00
2019-02-28T10:29:25.665Z,30.40
2019-02-28T10:32:01.349Z,29.50
2019-02-28T10:34:30.108Z,29.60
2019-02-28T10:37:05.318Z,30.60
2019-02-28T10:39:33.962Z,30.00
2019-02-28T10:42:09.287Z,30.70
2019-02-28T10:44:38.009Z,30.90
2019-02-28T10:47:06.650Z,30.50
2019-02-28T10:49:42.633Z,29.30
2019-02-28T10:52:11.219Z,29.00
2019-02-28T10:54:48.666Z,27.60
2019-02-28T10:57:16.710Z,26.60
2019-02-28T10:59:46.206Z,26.00
2019-02-28T11:02:21.501Z,24.00
2019-02-28T11:04:50.200Z,22.60
2019-02-28T11:07:25.287Z,21.60
2019-02-28T11:09:55.598Z,21.00
2019-02-28T11:12:24.571Z,20.30
2019-02-28T11:14:59.765Z,19.90
2019-02-28T11:17:30.395Z,19.90
2019-02-28T11:20:05.916Z,19.20
2019-02-28T11:22:36.555Z,18.70
2019-02-28T11:25:20.646Z,18.20
2019-02-28T11:27:49.123Z,18.10
2019-02-28T11:30:44.647Z,18.20
2019-02-28T11:33:22.777Z,18.10
2019-02-28T11:35:59.058Z,18.40
2019-02-28T11:38:27.409Z,18.40
2019-02-28T11:40:57.471Z,18.50
2019-02-28T11:43:37.362Z,18.10
2019-02-28T11:46:03.552Z,18.20
2019-02-28T11:48:39.136Z,18.30
2019-02-28T11:51:07.941Z,18.00
2019-02-28T11:53:43.911Z,17.70
2019-02-28T11:56:12.466Z,17.50
2019-02-28T11:58:41.168Z,17.20
2019-02-28T12:01:17.138Z,17.20
2019-02-28T12:03:45.762Z,17.30
2019-02-28T12:06:22.414Z,17.60
2019-02-28T12:08:51.389Z,17.70
2019-02-28T12:11:19.977Z,17.80
2019-02-28T12:13:56.155Z,17.80
2019-02-28T12:16:25.029Z,17.70
2019-02-28T12:19:00.107Z,17.30
2019-02-28T12:21:28.696Z,17.00
2019-02-28T12:23:58.346Z,17.00
2019-02-28T12:26:33.978Z,17.00
2019-02-28T12:29:02.646Z,17.10
2019-02-28T12:31:44.182Z,17.00
2019-02-28T12:34:20.149Z,17.00
2019-02-28T12:36:55.992Z,17.10
2019-02-28T12:39:24.586Z,17.10
2019-02-28T12:41:53.162Z,17.00
2019-02-28T12:44:28.610Z,17.00
2019-02-28T12:46:57.222Z,16.90
2019-02-28T12:49:32.608Z,16.90
2019-02-28T12:52:01.403Z,17.00
2019-02-28T12:54:33.043Z,16.80
2019-02-28T12:57:06.974Z,16.70
2019-02-28T12:59:35.895Z,16.60
2019-02-28T13:02:11.655Z,16.70
2019-02-28T13:04:40.202Z,16.90
2019-02-28T13:07:16.403Z,16.90
2019-02-28T13:09:45.169Z,16.90
2019-02-28T13:12:13.715Z,16.90
2019-02-28T13:14:49.105Z,16.90
2019-02-28T13:17:17.886Z,16.70
2019-02-28T13:19:56.692Z,16.70
2019-02-28T13:22:24.432Z,16.70
2019-02-28T13:24:53.076Z,16.30
2019-02-28T13:27:29.022Z,16.30
2019-02-28T13:29:57.756Z,16.00
2019-02-28T13:32:39.750Z,16.20
2019-02-28T13:35:24.364Z,16.10
2019-02-28T13:37:59.847Z,16.00
2019-02-28T13:40:28.424Z,16.10
2019-02-28T13:42:57.101Z,16.00
2019-02-28T13:45:32.762Z,15.90
2019-02-28T13:48:03.358Z,15.80
2019-02-28T13:50:40.426Z,15.80
2019-02-28T13:53:18.938Z,15.80
2019-02-28T13:55:41.626Z,15.70
2019-02-28T13:58:21.499Z,15.70
2019-02-28T14:00:47.916Z,15.70
2019-02-28T14:03:23.547Z,15.50
2019-02-28T14:05:52.227Z,15.60
2019-02-28T14:08:21.124Z,15.50
2019-02-28T14:10:56.067Z,15.60
2019-02-28T14:13:24.753Z,15.50
2019-02-28T14:16:00.561Z,15.60
2019-02-28T14:18:29.383Z,15.70
2019-02-28T14:20:59.422Z,15.80
2019-02-28T14:23:34.946Z,15.70
2019-02-28T14:26:03.554Z,15.60
2019-02-28T14:28:41.850Z,15.60
2019-02-28T14:31:17.101Z,15.60
2019-02-28T14:33:59.593Z,15.40
2019-02-28T14:36:28.151Z,15.40
2019-02-28T14:38:56.965Z,15.30
2019-02-28T14:41:31.965Z,15.30
2019-02-28T14:44:00.766Z,15.30
2019-02-28T14:46:36.031Z,15.20
2019-02-28T14:49:04.593Z,15.10
2019-02-28T14:51:33.190Z,15.10
2019-02-28T14:54:07.929Z,15.00
2019-02-28T14:56:39.578Z,14.90
2019-02-28T14:59:13.938Z,14.80
2019-02-28T15:01:42.492Z,14.60
2019-02-28T15:04:11.379Z,14.50
2019-02-28T15:06:47.642Z,14.50
2019-02-28T15:09:16.603Z,14.40
2019-02-28T15:11:52.070Z,14.30
2019-02-28T15:14:20.714Z,14.20
2019-02-28T15:16:49.590Z,14.20
2019-02-28T15:19:25.522Z,14.20
2019-02-28T15:21:54.323Z,14.00
2019-02-28T15:24:29.360Z,14.00
2019-02-28T15:26:58.390Z,13.90
2019-02-28T15:29:27.020Z,13.70
2019-02-28T15:32:02.656Z,13.70
2019-02-28T15:34:41.084Z,13.60
2019-02-28T15:37:22.368Z,13.50
2019-02-28T15:39:51.047Z,13.40
2019-02-28T15:42:20.341Z,13.40
2019-02-28T15:44:55.803Z,13.30
2019-02-28T15:47:24.481Z,13.20
2019-02-28T15:50:00.566Z,13.20
2019-02-28T15:52:29.451Z,13.20
2019-02-28T15:55:02.004Z,13.10
2019-02-28T15:57:37.084Z,13.10
2019-02-28T16:00:10.515Z,13.10
2019-02-28T16:02:45.568Z,13.10
2019-02-28T16:05:14.165Z,13.00
2019-02-28T16:07:43.271Z,12.90
2019-02-28T16:10:21.784Z,12.90
2019-02-28T16:12:51.210Z,12.80
2019-02-28T16:15:27.149Z,12.80
2019-02-28T16:17:55.832Z,12.80
2019-02-28T16:20:25.121Z,12.70
2019-02-28T16:23:00.600Z,12.70
2019-02-28T16:25:34.384Z,12.70
2019-02-28T16:28:09.263Z,12.60
2019-02-28T16:30:39.763Z,12.50
2019-02-28T16:33:24.898Z,12.50
2019-02-28T16:35:52.178Z,12.50
2019-02-28T16:38:34.385Z,12.40
2019-02-28T16:41:03.274Z,12.40
2019-02-28T16:43:33.903Z,12.40
2019-02-28T16:46:09.065Z,12.40
2019-02-28T16:48:37.931Z,12.30
2019-02-28T16:51:13.781Z,12.30
2019-02-28T16:53:42.368Z,12.30
2019-02-28T16:56:11.349Z,12.20
2019-02-28T16:58:47.082Z,12.20
2019-02-28T17:01:17.592Z,12.20
2019-02-28T17:03:52.401Z,12.20
2019-02-28T17:06:21.167Z,12.20
2019-02-28T17:08:54.282Z,12.20
2019-02-28T17:11:29.286Z,12.10
2019-02-28T17:13:59.436Z,12.10
2019-02-28T17:16:38.762Z,12.00
2019-02-28T17:19:08.550Z,11.90
2019-02-28T17:21:44.000Z,11.90
2019-02-28T17:24:13.259Z,11.80
2019-02-28T17:26:58.879Z,11.80
2019-02-28T17:29:38.528Z,11.80
2019-02-28T17:32:13.567Z,11.80
2019-02-28T17:34:49.416Z,11.80
2019-02-28T17:37:32.646Z,11.70
2019-02-28T17:40:01.209Z,11.70
2019-02-28T17:42:33.533Z,11.70
2019-02-28T17:45:15.625Z,11.60
2019-02-28T17:48:00.906Z,11.60
2019-02-28T17:50:42.951Z,11.60
2019-02-28T17:53:21.489Z,11.60
2019-02-28T17:56:32.580Z,11.60
2019-02-28T17:59:25.388Z,11.50
2019-02-28T18:02:15.727Z,11.50
2019-02-28T18:05:30.128Z,11.50
2019-02-28T18:08:17.119Z,11.50
2019-02-28T18:11:06.696Z,11.50
2019-02-28T18:13:59.734Z,11.50
2019-02-28T18:16:54.620Z,11.40
2019-02-28T18:19:39.296Z,11.40
2019-02-28T18:22:32.760Z,11.30
2019-02-28T18:25:04.725Z,11.30
2019-02-28T18:27:50.728Z,11.20
2019-02-28T18:30:27.506Z,11.20
2019-02-28T18:33:03.362Z,11.20
2019-02-28T18:35:38.910Z,11.20
2019-02-28T18:38:20.836Z,11.10
2019-02-28T18:40:49.339Z,11.10
2019-02-28T18:43:18.066Z,11.10
2019-02-28T18:45:53.632Z,11.00
2019-02-28T18:48:22.231Z,11.00
2019-02-28T18:50:57.407Z,11.00
2019-02-28T18:53:26.036Z,11.00
2019-02-28T18:55:54.811Z,11.00
2019-02-28T18:58:30.443Z,11.00
2019-02-28T19:00:59.357Z,11.00
2019-02-28T19:03:35.320Z,11.00
2019-02-28T19:06:03.907Z,10.90
2019-02-28T19:08:32.586Z,11.00
2019-02-28T19:11:07.759Z,11.00
2019-02-28T19:13:36.724Z,11.00
2019-02-28T19:16:11.864Z,11.00
2019-02-28T19:18:40.468Z,10.90
2019-02-28T19:21:09.268Z,10.90
2019-02-28T19:23:44.357Z,10.80
2019-02-28T19:26:12.895Z,10.80
2019-02-28T19:28:50.097Z,10.80
2019-02-28T19:31:18.680Z,10.80
2019-02-28T19:33:47.435Z,10.70
2019-02-28T19:36:22.254Z,10.70
2019-02-28T19:38:57.709Z,10.70
2019-02-28T19:41:33.222Z,10.60
2019-02-28T19:44:01.847Z,10.50
2019-02-28T19:46:30.608Z,10.50
2019-02-28T19:49:06.613Z,10.40
2019-02-28T19:51:35.464Z,10.40
2019-02-28T19:54:11.103Z,10.40
2019-02-28T19:56:39.670Z,10.40
2019-02-28T19:59:08.469Z,10.30
2019-02-28T20:01:45.315Z,10.30
2019-02-28T20:04:15.412Z,10.30
2019-02-28T20:06:51.217Z,10.30
2019-02-28T20:09:19.907Z,10.30
2019-02-28T20:11:48.540Z,10.20
2019-02-28T20:14:23.832Z,10.20
2019-02-28T20:16:52.550Z,10.20
2019-02-28T20:19:27.913Z,10.10
2019-02-28T20:21:56.856Z,10.10
2019-02-28T20:24:32.104Z,10.10
2019-02-28T20:27:00.764Z,10.10
2019-02-28T20:29:37.177Z,10.10
2019-02-28T20:32:05.761Z,10.10
2019-02-28T20:34:34.368Z,10.10
2019-02-28T20:37:09.317Z,10.20
2019-02-28T20:39:44.611Z,10.10
2019-02-28T20:42:26.424Z,10.10
2019-02-28T20:44:54.956Z,10.10
2019-02-28T20:47:23.532Z,10.10
2019-02-28T20:49:59.311Z,10.10
2019-02-28T20:52:27.921Z,10.10
2019-02-28T20:55:03.919Z,10.20
2019-02-28T20:57:32.461Z,10.20
2019-02-28T21:00:08.207Z,10.20
2019-02-28T21:02:36.740Z,10.10
2019-02-28T21:05:06.326Z,10.00
2019-02-28T21:07:41.725Z,10.00
2019-02-28T21:10:11.169Z,10.00
2019-02-28T21:12:47.091Z,10.00
2019-02-28T21:15:15.667Z,10.00
2019-02-28T21:17:44.374Z,10.00
2019-02-28T21:20:24.276Z,10.00
2019-02-28T21:22:52.991Z,9.90
2019-02-28T21:25:28.173Z,9.80
2019-02-28T21:27:56.926Z,9.70
2019-02-28T21:30:26.870Z,9.80
2019-02-28T21:33:04.134Z,9.80
2019-02-28T21:35:33.017Z,9.80
2019-02-28T21:38:14.528Z,9.90
2019-02-28T21:40:50.136Z,9.90
2019-02-28T21:43:25.130Z,10.00
2019-02-28T21:45:53.718Z,10.00
2019-02-28T21:48:22.455Z,10.10
2019-02-28T21:50:58.528Z,10.10
2019-02-28T21:53:27.210Z,10.10
2019-02-28T21:56:02.136Z,10.10
2019-02-28T21:58:31.346Z,10.20
2019-02-28T22:00:59.975Z,10.30
2019-02-28T22:03:35.022Z,10.30
2019-02-28T22:06:03.618Z,10.40
2019-02-28T22:08:39.392Z,10.40
2019-02-28T22:11:08.284Z,10.50
2019-02-28T22:13:37.183Z,10.50
2019-02-28T22:16:13.151Z,10.50
2019-02-28T22:18:41.731Z,10.50
2019-02-28T22:21:17.983Z,10.50
2019-02-28T22:23:46.670Z,10.60
2019-02-28T22:26:15.559Z,10.60
2019-02-28T22:28:51.188Z,10.60
2019-02-28T22:31:27.247Z,10.60
2019-02-28T22:34:04.482Z,10.60
2019-02-28T22:36:35.199Z,10.50
2019-02-28T22:39:17.289Z,10.50
2019-02-28T22:41:52.530Z,10.50
2019-02-28T22:44:21.216Z,10.60
2019-02-28T22:46:56.970Z,10.60
2019-02-28T22:49:25.655Z,10.60
2019-02-28T22:52:01.234Z,10.50
2019-02-28T22:54:29.891Z,10.50
2019-02-28T22:56:58.591Z,10.50
2019-02-28T22:59:34.420Z,10.50
2019-02-28T23:02:03.222Z,10.50
2019-02-28T23:04:38.165Z,10.50
2019-02-28T23:07:07.165Z,10.50
2019-02-28T23:09:42.466Z,10.50
2019-02-28T23:12:11.079Z,10.50
2019-02-28T23:14:39.762Z,10.50
2019-02-28T23:17:15.732Z,10.60
2019-02-28T23:19:44.408Z,10.60
2019-02-28T23:22:19.647Z,10.60
2019-02-28T23:24:48.172Z,10.60
2019-02-28T23:27:17.274Z,10.70
2019-02-28T23:29:56.354Z,10.70
2019-02-28T23:32:37.105Z,10.60
2019-02-28T23:35:18.922Z,10.70
2019-02-28T23:37:53.749Z,10.70
2019-02-28T23:40:35.874Z,10.70
2019-02-28T23:43:04.641Z,10.70
2019-02-28T23:45:33.240Z,10.70
2019-02-28T23:48:08.568Z,10.80
2019-02-28T23:50:37.358Z,10.80
2019-02-28T23:53:13.007Z,10.80
2019-02-28T23:55:41.601Z,10.90
2019-02-28T23:58:10.410Z,10.90
